Time;durP1;ratioP1;P1;durP2;ratioP2;P2;SDS_P1;SDS_P2;PMS_P1;PMS_P2;Temp;Humidity;BMP_temperature;BMP_pressure;BME280_temperature;BME280_humidity;BME280_pressure;Samples;Min_cycle;Max_cycle;Signal;HPM_P1;HPM_P2
2023/09/24 00:01:17;;;;;;;0.20;0.10;;;;;;;15.67;100.00;102196.34;10382379;28;20042;-82
2023/09/24 00:06:19;;;;;;;0.00;0.00;;;;;;;15.86;100.00;102199.44;10376493;28;20077;-82
2023/09/24 00:11:21;;;;;;;0.10;0.10;;;;;;;15.66;100.00;102207.56;10354434;28;20073;-82
2023/09/24 00:16:23;;;;;;;3.03;0.25;;;;;;;15.42;100.00;102202.63;10387745;28;20050;-82
2023/09/24 00:21:25;;;;;;;0.10;0.10;;;;;;;15.17;100.00;102199.34;10380098;28;20046;-82
2023/09/24 00:26:27;;;;;;;0.47;0.17;;;;;;;15.71;100.00;102218.09;10393490;28;20046;-82
2023/09/24 00:31:30;;;;;;;0.32;0.10;;;;;;;15.58;100.00;102216.88;10376842;28;20551;-82
2023/09/24 00:36:33;;;;;;;0.40;0.40;;;;;;;15.51;100.00;102226.25;10393530;28;20056;-82
2023/09/24 00:41:36;;;;;;;0.80;0.40;;;;;;;15.78;100.00;102240.78;10383453;28;20050;-81
2023/09/24 00:46:38;;;;;;;0.17;0.10;;;;;;;15.63;100.00;102236.09;10358947;28;20133;-82
2023/09/24 00:51:40;;;;;;;0.22;0.17;;;;;;;15.54;100.00;102243.63;10392584;28;20041;-82
2023/09/24 00:56:42;;;;;;;0.22;0.17;;;;;;;15.37;100.00;102237.97;10392945;28;20049;-82
2023/09/24 01:01:44;;;;;;;1.35;0.50;;;;;;;15.64;100.00;102244.75;10392482;28;20042;-82
2023/09/24 01:06:47;;;;;;;0.65;0.52;;;;;;;15.58;100.00;102244.59;10389982;28;20045;-82
2023/09/24 01:11:50;;;;;;;0.20;0.20;;;;;;;15.93;100.00;102255.94;10394673;28;20038;-82
2023/09/24 01:16:51;;;;;;;0.20;0.03;;;;;;;15.92;100.00;102253.28;10391293;28;20050;-82
2023/09/24 01:21:58;;;;;;;0.20;0.15;;;;;;;15.90;100.00;102247.19;10361059;28;20045;-82
2023/09/24 01:26:59;;;;;;;0.10;0.10;;;;;;;15.36;100.00;102239.69;10377948;28;20073;-82
2023/09/24 01:32:01;;;;;;;1.45;0.55;;;;;;;15.38;100.00;102239.72;10358154;28;20408;-82
2023/09/24 01:37:09;;;;;;;0.20;0.20;;;;;;;15.31;100.00;102236.09;10359890;28;20057;-82
2023/09/24 01:42:13;;;;;;;0.03;0.03;;;;;;;14.78;100.00;102231.09;10341893;28;20110;-82
2023/09/24 01:47:15;;;;;;;0.40;0.35;;;;;;;14.84;100.00;102233.91;10366415;28;20677;-82
2023/09/24 01:52:16;;;;;;;0.32;0.20;;;;;;;15.01;100.00;102249.06;10396272;28;20124;-83
2023/09/24 01:57:18;;;;;;;0.98;0.43;;;;;;;14.64;100.00;102238.44;10368748;28;20045;-82
2023/09/24 02:02:21;;;;;;;0.80;0.55;;;;;;;14.65;100.00;102234.13;10393521;28;20478;-82
2023/09/24 02:07:22;;;;;;;0.43;0.40;;;;;;;14.70;100.00;102232.59;10373928;28;20555;-83
2023/09/24 02:12:25;;;;;;;1.65;1.17;;;;;;;14.78;100.00;102238.88;10374142;28;20049;-82
2023/09/24 02:17:27;;;;;;;0.28;0.22;;;;;;;14.40;100.00;102229.06;10372969;28;20046;-83
2023/09/24 02:22:29;;;;;;;6.10;1.00;;;;;;;14.35;100.00;102240.13;10399181;28;20042;-83
2023/09/24 02:27:33;;;;;;;1.23;0.45;;;;;;;14.21;100.00;102235.38;10372385;28;20049;-82
2023/09/24 02:32:35;;;;;;;0.65;0.50;;;;;;;14.24;100.00;102234.59;10356280;28;20042;-82
2023/09/24 02:37:41;;;;;;;0.90;0.68;;;;;;;14.24;100.00;102243.28;10355836;28;20599;-82
2023/09/24 02:42:46;;;;;;;0.22;0.22;;;;;;;14.32;100.00;102245.22;10351003;28;20590;-83
2023/09/24 02:47:49;;;;;;;1.00;0.40;;;;;;;14.15;100.00;102248.16;10386346;28;20049;-83
2023/09/24 02:52:57;;;;;;;0.22;0.20;;;;;;;14.06;100.00;102255.63;10352644;28;20096;-82
2023/09/24 02:57:59;;;;;;;0.10;0.10;;;;;;;14.07;100.00;102254.78;10366943;28;20046;-82
2023/09/24 03:03:03;;;;;;;1.27;0.25;;;;;;;13.98;100.00;102267.44;10388267;28;20073;-83
2023/09/24 03:08:05;;;;;;;0.75;0.68;;;;;;;14.24;100.00;102274.38;10370270;28;20050;-83
2023/09/24 03:13:07;;;;;;;0.57;0.32;;;;;;;14.47;100.00;102282.03;10370642;28;20037;-83
2023/09/24 03:18:09;;;;;;;0.63;0.40;;;;;;;14.21;100.00;102289.81;10387465;28;20042;-83
2023/09/24 03:23:13;;;;;;;0.52;0.28;;;;;;;14.62;100.00;102291.13;10370726;28;20069;-83
2023/09/24 03:28:15;;;;;;;0.73;0.57;;;;;;;14.37;100.00;102295.50;10353970;28;20133;-83
2023/09/24 03:33:18;;;;;;;0.52;0.35;;;;;;;14.41;100.00;102297.34;10395264;28;20050;-83
2023/09/24 03:38:20;;;;;;;0.40;0.40;;;;;;;14.71;100.00;102306.97;10386917;28;20065;-83
2023/09/24 03:43:21;;;;;;;0.32;0.32;;;;;;;14.14;100.00;102303.41;10386401;28;20069;-83
2023/09/24 03:48:23;;;;;;;0.57;0.40;;;;;;;14.34;100.00;102309.25;10370162;28;20615;-83
2023/09/24 03:53:25;;;;;;;3.10;1.20;;;;;;;14.63;100.00;102314.50;10385678;28;20200;-83
2023/09/24 03:58:27;;;;;;;0.47;0.47;;;;;;;14.48;100.00;102320.09;10358888;28;20042;-83
2023/09/24 04:03:30;;;;;;;2.30;0.22;;;;;;;14.68;100.00;102317.28;10370098;28;20073;-83
2023/09/24 04:08:32;;;;;;;0.52;0.25;;;;;;;15.23;100.00;102328.44;10356481;28;20732;-83
2023/09/24 04:13:35;;;;;;;0.10;0.10;;;;;;;14.54;100.00;102325.47;10369761;28;20040;-83
2023/09/24 04:18:38;;;;;;;0.15;0.15;;;;;;;14.38;100.00;102318.88;10353595;28;20045;-83
2023/09/24 04:23:39;;;;;;;0.22;0.22;;;;;;;14.58;100.00;102342.00;10388088;28;20125;-83
2023/09/24 04:28:41;;;;;;;0.10;0.00;;;;;;;14.51;100.00;102356.47;10371529;28;20076;-83
2023/09/24 04:33:44;;;;;;;0.17;0.10;;;;;;;14.46;100.00;102351.97;10369538;28;20045;-83
2023/09/24 04:38:47;;;;;;;0.60;0.40;;;;;;;14.40;100.00;102357.84;10386405;28;20100;-83
2023/09/24 04:43:48;;;;;;;0.30;0.30;;;;;;;14.21;100.00;102359.78;10369231;28;20571;-84
2023/09/24 04:48:50;;;;;;;0.00;0.00;;;;;;;14.44;100.00;102367.47;10385770;28;20061;-83
2023/09/24 04:53:52;;;;;;;0.73;0.38;;;;;;;14.05;100.00;102358.41;10361562;28;20060;-83
2023/09/24 04:58:54;;;;;;;2.95;0.82;;;;;;;14.25;100.00;102364.28;10376591;28;20049;-83
2023/09/24 05:03:55;;;;;;;0.40;0.30;;;;;;;13.80;100.00;102365.28;10352161;28;20145;-84
2023/09/24 05:08:58;;;;;;;0.47;0.47;;;;;;;13.92;100.00;102359.66;10399642;28;20060;-84
2023/09/24 05:13:59;;;;;;;3.03;0.65;;;;;;;14.32;100.00;102356.69;10375913;28;20726;-84
2023/09/24 05:19:03;;;;;;;1.65;0.70;;;;;;;14.19;100.00;102361.44;10375553;28;20050;-83
2023/09/24 05:24:05;;;;;;;0.15;0.15;;;;;;;14.08;100.00;102365.41;10387254;28;20048;-83
2023/09/24 05:29:06;;;;;;;0.30;0.25;;;;;;;13.81;100.00;102358.44;10391357;28;20045;-83
2023/09/24 05:34:08;;;;;;;0.57;0.45;;;;;;;13.69;100.00;102360.53;10386232;28;20038;-83
2023/09/24 05:39:11;;;;;;;2.53;0.82;;;;;;;13.96;100.00;102374.47;10374485;28;20053;-84
2023/09/24 05:44:15;;;;;;;1.38;0.55;;;;;;;13.96;100.00;102386.56;10378319;28;20065;-82
2023/09/24 05:49:18;;;;;;;0.22;0.10;;;;;;;14.22;100.00;102384.91;10392649;28;20042;-84
2023/09/24 05:54:19;;;;;;;0.63;0.45;;;;;;;14.46;100.00;102394.34;10373216;28;20037;-84
2023/09/24 05:59:21;;;;;;;0.82;0.55;;;;;;;14.50;100.00;102390.16;10389928;28;20044;-84
2023/09/24 06:04:23;;;;;;;1.42;1.08;;;;;;;15.10;100.00;102386.91;10370802;28;20050;-85
2023/09/24 06:09:28;;;;;;;0.70;0.30;;;;;;;15.21;100.00;102398.50;10367327;28;20429;-84
2023/09/24 06:14:31;;;;;;;0.38;0.35;;;;;;;15.82;100.00;102408.91;10382942;28;20060;-84
2023/09/24 06:19:32;;;;;;;0.90;0.47;;;;;;;15.91;100.00;102412.66;10382802;28;20512;-83
2023/09/24 06:24:34;;;;;;;0.95;0.63;;;;;;;15.88;100.00;102422.97;10365546;28;20404;-85
2023/09/24 06:29:36;;;;;;;1.30;0.63;;;;;;;17.07;100.00;102439.06;10382579;28;20049;-84
2023/09/24 06:34:38;;;;;;;1.55;0.85;;;;;;;15.97;100.00;102439.72;10382120;28;20049;-84
2023/09/24 06:39:41;;;;;;;0.43;0.35;;;;;;;16.30;100.00;102453.59;10381664;28;20099;-83
2023/09/24 06:44:44;;;;;;;0.50;0.50;;;;;;;16.41;100.00;102454.78;10382033;28;20057;-83
2023/09/24 06:49:50;;;;;;;0.85;0.50;;;;;;;16.75;100.00;102460.84;10378602;28;20057;-83
2023/09/24 06:54:51;;;;;;;0.43;0.43;;;;;;;16.74;100.00;102468.63;10364739;28;20042;-83
2023/09/24 06:59:53;;;;;;;0.73;0.60;;;;;;;17.53;100.00;102475.72;10378898;28;20050;-83
2023/09/24 07:04:55;;;;;;;1.88;0.60;;;;;;;17.86;100.00;102480.78;10379452;28;20049;-82
2023/09/24 07:09:58;;;;;;;0.70;0.52;;;;;;;17.26;100.00;102493.34;10359555;28;20053;-83
2023/09/24 07:15:00;;;;;;;0.43;0.35;;;;;;;17.43;100.00;102485.91;10361941;28;20053;-83
2023/09/24 07:20:04;;;;;;;0.98;0.85;;;;;;;17.49;100.00;102494.72;10378430;28;20049;-83
2023/09/24 07:25:07;;;;;;;0.45;0.28;;;;;;;17.66;100.00;102493.38;10359893;28;20575;-83
2023/09/24 07:30:09;;;;;;;1.13;0.40;;;;;;;18.93;100.00;102493.25;10363107;28;20041;-84
2023/09/24 07:35:11;;;;;;;0.20;0.10;;;;;;;17.47;100.00;102501.59;10364187;28;20045;-83
2023/09/24 07:40:14;;;;;;;0.98;0.88;;;;;;;17.76;100.00;102500.53;10364847;28;20042;-84
2023/09/24 07:45:18;;;;;;;1.05;0.43;;;;;;;18.15;100.00;102510.91;10380293;28;20405;-84
2023/09/24 07:50:20;;;;;;;1.35;0.90;;;;;;;18.67;100.00;102522.34;10363157;28;20057;-84
2023/09/24 07:55:22;;;;;;;1.08;0.47;;;;;;;18.75;100.00;102514.66;10363308;28;20042;-83
2023/09/24 08:00:23;;;;;;;0.30;0.30;;;;;;;18.34;100.00;102518.28;10379462;28;20048;-83
2023/09/24 08:05:25;;;;;;;0.65;0.35;;;;;;;18.33;100.00;102524.34;10374213;28;20457;-84
2023/09/24 08:10:27;;;;;;;0.22;0.20;;;;;;;19.55;100.00;102522.91;10362133;28;20054;-84
2023/09/24 08:15:29;;;;;;;0.65;0.40;;;;;;;18.64;100.00;102526.63;10358016;28;20673;-83
2023/09/24 08:20:34;;;;;;;0.65;0.30;;;;;;;19.36;100.00;102529.59;10372608;28;20058;-82
2023/09/24 08:25:37;;;;;;;0.55;0.43;;;;;;;19.45;100.00;102521.91;10346776;28;20124;-83
2023/09/24 08:30:38;;;;;;;0.47;0.30;;;;;;;20.02;100.00;102531.41;10378979;28;20042;-82
2023/09/24 08:35:40;;;;;;;0.28;0.28;;;;;;;20.27;100.00;102528.25;10362671;28;20096;-82
2023/09/24 08:40:42;;;;;;;4.90;0.95;;;;;;;21.74;100.00;102533.88;10378400;28;20104;-84
2023/09/24 08:45:44;;;;;;;0.30;0.20;;;;;;;21.46;100.00;102527.53;10370816;28;20052;-84
2023/09/24 08:50:47;;;;;;;1.35;0.65;;;;;;;20.21;100.00;102535.13;10379307;28;20049;-84
2023/09/24 08:55:49;;;;;;;0.28;0.22;;;;;;;21.40;100.00;102536.25;10337818;28;20112;-84
2023/09/24 09:00:51;;;;;;;0.10;0.10;;;;;;;22.14;100.00;102534.03;10386973;28;20045;-84
2023/09/24 09:05:53;;;;;;;1.45;0.40;;;;;;;21.93;100.00;102533.97;10369153;28;20520;-85
2023/09/24 09:10:55;;;;;;;0.20;0.20;;;;;;;22.73;100.00;102518.44;10367564;28;20054;-85
2023/09/24 09:16:08;;;;;;;0.75;0.60;;;;;;;21.75;100.00;102522.50;10383099;28;20041;-85
2023/09/24 09:21:25;;;;;;;0.70;0.57;;;;;;;21.92;100.00;102521.72;10360963;28;20042;-84
2023/09/24 09:26:30;;;;;;;0.47;0.20;;;;;;;22.06;100.00;102506.00;10395093;28;20041;-83
2023/09/24 09:31:47;;;;;;;0.30;0.20;;;;;;;22.22;100.00;102504.31;10357504;28;20414;-84
2023/09/24 09:36:50;;;;;;;0.35;0.32;;;;;;;22.68;100.00;102507.03;10376303;28;20888;-84
2023/09/24 09:41:52;;;;;;;0.00;0.00;;;;;;;22.69;100.00;102500.91;10368987;28;20417;-83
2023/09/24 09:46:59;;;;;;;0.00;0.00;;;;;;;21.50;100.00;102503.97;10391183;28;20045;-84
2023/09/24 09:52:02;;;;;;;0.00;0.00;;;;;;;22.03;100.00;102493.75;10374683;28;20045;-84
2023/09/24 09:57:04;;;;;;;0.10;0.10;;;;;;;21.76;100.00;102491.88;10357603;28;20100;-84
2023/09/24 10:02:07;;;;;;;0.17;0.10;;;;;;;22.65;100.00;102483.41;10381750;28;20466;-86
2023/09/24 10:07:09;;;;;;;0.30;0.30;;;;;;;21.92;100.00;102479.72;10382217;28;20052;-85
2023/09/24 10:12:10;;;;;;;0.03;0.03;;;;;;;23.37;100.00;102464.06;10348523;28;20065;-85
2023/09/24 10:17:15;;;;;;;0.10;0.10;;;;;;;22.76;100.00;102476.38;10371766;28;20048;-85
2023/09/24 10:22:44;;;;;;;0.00;0.00;;;;;;;22.63;100.00;102469.38;10356009;28;20042;-84
2023/09/24 10:28:05;;;;;;;0.00;0.00;;;;;;;22.94;100.00;102461.50;10391512;28;20058;-85
2023/09/24 10:33:11;;;;;;;0.00;0.00;;;;;;;24.29;100.00;102454.00;10383451;28;20042;-85
2023/09/24 10:38:13;;;;;;;0.00;0.00;;;;;;;23.98;100.00;102451.56;10398177;28;20053;-86
2023/09/24 10:43:18;;;;;;;0.20;0.10;;;;;;;23.35;100.00;102450.03;10385543;28;20044;-84
2023/09/24 10:48:21;;;;;;;0.10;0.10;;;;;;;23.03;100.00;102448.34;10399946;28;20050;-83
2023/09/24 10:53:33;;;;;;;0.28;0.17;;;;;;;23.72;100.00;102454.31;10378467;28;20042;-85
2023/09/24 10:58:34;;;;;;;1.27;0.10;;;;;;;24.06;100.00;102444.50;10360662;28;20120;-85
2023/09/24 11:03:36;;;;;;;0.40;0.20;;;;;;;23.89;100.00;102441.06;10385623;28;20040;-85
2023/09/24 11:08:38;;;;;;;0.00;0.00;;;;;;;23.89;100.00;102447.22;10391290;28;20546;-85
2023/09/24 11:13:40;;;;;;;0.00;0.00;;;;;;;24.59;100.00;102445.88;10369411;28;20094;-85
2023/09/24 11:18:47;;;;;;;0.00;0.00;;;;;;;22.98;100.00;102450.09;10363595;28;20048;-83
2023/09/24 11:23:49;;;;;;;0.00;0.00;;;;;;;23.69;100.00;102455.19;10363815;28;20452;-83
2023/09/24 11:28:56;;;;;;;1.27;0.38;;;;;;;23.58;100.00;102454.34;10391842;28;20516;-84
2023/09/24 11:33:58;;;;;;;0.20;0.20;;;;;;;24.30;100.00;102442.59;10404068;28;20141;-84
2023/09/24 11:39:00;;;;;;;0.00;0.00;;;;;;;23.94;100.00;102444.56;10386034;28;20125;-83
2023/09/24 11:44:02;;;;;;;0.00;0.00;;;;;;;23.31;100.00;102443.06;10394194;28;20474;-86
2023/09/24 11:49:04;;;;;;;0.00;0.00;;;;;;;23.33;100.00;102436.03;10387665;28;20528;-85
2023/09/24 11:54:06;;;;;;;0.00;0.00;;;;;;;23.64;100.00;102441.19;10390401;28;20110;-84
2023/09/24 11:59:08;;;;;;;0.28;0.28;;;;;;;23.62;100.00;102440.31;10395103;28;20072;-83
2023/09/24 12:04:09;;;;;;;0.00;0.00;;;;;;;23.86;100.00;102433.19;10377960;28;20073;-82
2023/09/24 12:09:12;;;;;;;1.20;0.93;;;;;;;23.42;100.00;102422.84;10401405;28;20045;-84
2023/09/24 12:14:14;;;;;;;0.00;0.00;;;;;;;24.01;100.00;102422.59;10373141;28;20524;-84
2023/09/24 12:19:16;;;;;;;0.00;0.00;;;;;;;23.36;100.00;102414.13;10380096;28;20053;-85
2023/09/24 12:24:17;;;;;;;0.00;0.00;;;;;;;23.68;100.00;102406.06;10400709;28;20056;-83
2023/09/24 12:29:19;;;;;;;0.47;0.35;;;;;;;24.00;100.00;102398.91;10386410;28;20064;-85
2023/09/24 12:34:21;;;;;;;0.20;0.10;;;;;;;23.95;100.00;102409.47;10396482;28;20046;-84
2023/09/24 12:39:24;;;;;;;0.00;0.00;;;;;;;23.27;100.00;102405.38;10393462;28;20048;-84
2023/09/24 12:44:26;;;;;;;0.10;0.00;;;;;;;23.80;100.00;102404.25;10391777;28;20393;-83
2023/09/24 12:49:27;;;;;;;0.00;0.00;;;;;;;24.26;100.00;102409.25;10388240;28;20045;-84
2023/09/24 12:54:29;;;;;;;0.00;0.00;;;;;;;23.34;100.00;102398.34;10383162;28;20142;-83
2023/09/24 12:59:31;;;;;;;0.20;0.10;;;;;;;22.94;100.00;102401.91;10380604;28;20125;-82
2023/09/24 13:04:34;;;;;;;0.00;0.00;;;;;;;23.53;100.00;102395.63;10378893;28;20049;-81
2023/09/24 13:09:36;;;;;;;0.00;0.00;;;;;;;23.09;100.00;102400.13;10382422;28;20057;-82
2023/09/24 13:14:37;;;;;;;0.10;0.10;;;;;;;22.88;100.00;102401.06;10383487;28;20473;-83
2023/09/24 13:19:39;;;;;;;1.95;0.20;;;;;;;23.13;100.00;102386.97;10381873;28;20057;-82
2023/09/24 13:24:41;;;;;;;0.00;0.00;;;;;;;23.70;100.00;102383.28;10398612;28;20050;-83
2023/09/24 13:29:43;;;;;;;0.20;0.20;;;;;;;23.70;100.00;102383.28;10403751;28;20144;-82
2023/09/24 13:34:45;;;;;;;0.00;0.00;;;;;;;23.70;100.00;102387.66;10385249;28;20042;-82
2023/09/24 13:39:46;;;;;;;0.00;0.00;;;;;;;23.89;100.00;102381.41;10392657;28;20069;-83
2023/09/24 13:44:48;;;;;;;0.15;0.15;;;;;;;24.42;100.00;102364.34;10394378;28;20093;-84
2023/09/24 13:49:49;;;;;;;0.00;0.00;;;;;;;23.85;100.00;102361.25;10390017;28;20050;-82
2023/09/24 13:54:51;;;;;;;0.00;0.00;;;;;;;24.02;100.00;102353.25;10409823;28;20576;-83
2023/09/24 13:59:53;;;;;;;0.00;0.00;;;;;;;23.97;100.00;102355.06;10384099;28;20054;-83
2023/09/24 14:04:55;;;;;;;1.38;1.10;;;;;;;23.83;100.00;102346.34;10390578;28;20484;-83
2023/09/24 14:15:18;;;;;;;0.00;0.00;;;;;;;24.30;100.00;102347.78;10385240;28;20046;-83
2023/09/24 14:20:19;;;;;;;0.50;0.20;;;;;;;24.38;100.00;102340.69;10395502;28;20488;-85
2023/09/24 14:25:21;;;;;;;0.17;0.10;;;;;;;24.05;100.00;102336.59;10402942;28;20069;-84
2023/09/24 14:30:23;;;;;;;2.42;1.40;;;;;;;23.80;100.00;102341.09;10375199;28;20048;-83
2023/09/24 14:35:24;;;;;;;0.43;0.20;;;;;;;23.96;100.00;102334.88;10403439;28;20052;-83
2023/09/24 14:40:26;;;;;;;0.30;0.28;;;;;;;24.17;100.00;102327.69;10386057;28;20052;-83
2023/09/24 14:45:28;;;;;;;0.10;0.10;;;;;;;24.02;100.00;102324.28;10399528;28;20393;-85
2023/09/24 14:50:30;;;;;;;0.25;0.25;;;;;;;23.90;100.00;102332.25;10403222;28;20450;-83
2023/09/24 14:55:38;;;;;;;0.10;0.10;;;;;;;23.87;100.00;102321.75;10393026;28;20060;-81
2023/09/24 15:00:39;;;;;;;0.00;0.00;;;;;;;23.88;100.00;102318.22;10387770;28;20040;-83
2023/09/24 15:05:42;;;;;;;0.00;0.00;;;;;;;24.01;100.00;102314.69;10373236;28;20488;-84
2023/09/24 15:10:44;;;;;;;0.10;0.10;;;;;;;23.49;100.00;102304.50;10382939;28;20497;-82
2023/09/24 15:15:47;;;;;;;0.00;0.00;;;;;;;24.21;100.00;102308.34;10417790;28;20050;-84
2023/09/24 15:20:50;;;;;;;0.15;0.15;;;;;;;23.95;100.00;102304.16;10404437;28;20046;-83
2023/09/24 15:25:52;;;;;;;0.05;0.05;;;;;;;23.98;100.00;102304.16;10345468;28;20042;-84
2023/09/24 15:30:53;;;;;;;0.00;0.00;;;;;;;23.71;100.00;102303.47;10390885;28;20481;-82
2023/09/24 15:35:55;;;;;;;0.00;0.00;;;;;;;23.93;100.00;102300.72;10388515;28;20030;-84
2023/09/24 15:40:57;;;;;;;0.00;0.00;;;;;;;24.18;100.00;102301.38;10393778;28;20054;-85
2023/09/24 15:46:00;;;;;;;0.20;0.20;;;;;;;24.38;100.00;102298.56;10359025;28;20450;-83
2023/09/24 15:51:02;;;;;;;0.00;0.00;;;;;;;24.51;100.00;102293.16;10372468;28;20050;-82
2023/09/24 15:56:03;;;;;;;0.25;0.17;;;;;;;24.14;100.00;102293.50;10365171;28;20054;-79
2023/09/24 16:01:05;;;;;;;0.00;0.00;;;;;;;24.05;100.00;102281.31;10379710;28;20573;-82
2023/09/24 16:06:07;;;;;;;0.00;0.00;;;;;;;23.71;100.00;102276.25;10374062;28;20058;-83
2023/09/24 16:11:10;;;;;;;0.00;0.00;;;;;;;24.05;100.00;102274.28;10380716;28;20045;-83
2023/09/24 16:16:12;;;;;;;0.00;0.00;;;;;;;24.08;100.00;102284.78;10377654;28;20482;-82
2023/09/24 16:21:14;;;;;;;0.00;0.00;;;;;;;24.11;100.00;102283.88;10397876;28;20052;-82
2023/09/24 16:26:18;;;;;;;0.00;0.00;;;;;;;23.65;100.00;102278.94;10400931;28;20041;-82
2023/09/24 16:31:20;;;;;;;0.00;0.00;;;;;;;24.01;100.00;102272.56;10399494;28;20058;-84
2023/09/24 16:36:22;;;;;;;0.20;0.05;;;;;;;23.68;100.00;102264.00;10421657;28;20042;-82
2023/09/24 16:41:23;;;;;;;0.00;0.00;;;;;;;24.03;100.00;102268.13;10422098;28;20049;-83
2023/09/24 16:46:25;;;;;;;0.00;0.00;;;;;;;23.61;100.00;102275.47;10381716;28;20548;-83
2023/09/24 16:51:27;;;;;;;0.00;0.00;;;;;;;24.13;100.00;102281.22;10400348;28;20049;-82
2023/09/24 16:56:29;;;;;;;0.17;0.03;;;;;;;23.70;100.00;102277.13;10368471;28;20045;-83
2023/09/24 17:01:33;;;;;;;0.00;0.00;;;;;;;22.92;100.00;102266.16;10409789;28;20097;-84
2023/09/24 17:06:34;;;;;;;0.00;0.00;;;;;;;23.03;100.00;102269.63;10408774;28;20096;-83
2023/09/24 17:11:36;;;;;;;0.00;0.00;;;;;;;23.28;100.00;102275.66;10420226;28;20045;-84
2023/09/24 17:16:38;;;;;;;0.00;0.00;;;;;;;22.33;100.00;102282.03;10412608;28;20076;-83
2023/09/24 17:21:40;;;;;;;0.00;0.00;;;;;;;22.08;100.00;102282.06;10432697;28;20504;-84
2023/09/24 17:26:41;;;;;;;0.00;0.00;;;;;;;21.64;100.00;102283.78;10435248;28;20037;-83
2023/09/24 17:31:43;;;;;;;0.00;0.00;;;;;;;21.63;100.00;102283.81;10425825;28;20097;-84
2023/09/24 17:36:45;;;;;;;0.00;0.00;;;;;;;21.23;100.00;102282.78;10434312;28;20053;-83
2023/09/24 17:41:46;;;;;;;0.00;0.00;;;;;;;20.92;100.00;102280.03;10385124;28;20484;-83
2023/09/24 17:46:48;;;;;;;0.00;0.00;;;;;;;21.14;100.00;102280.13;10404014;28;20074;-83
2023/09/24 17:51:50;;;;;;;0.15;0.13;;;;;;;20.80;100.00;102285.22;10410682;28;20053;-83
2023/09/24 17:56:51;;;;;;;0.00;0.00;;;;;;;20.58;100.00;102290.31;10396722;28;20056;-83
2023/09/24 18:01:54;;;;;;;0.00;0.00;;;;;;;20.18;100.00;102294.38;10405474;28;20042;-83
2023/09/24 18:06:56;;;;;;;0.00;0.00;;;;;;;20.42;100.00;102285.84;10373256;28;20084;-83
2023/09/24 18:11:57;;;;;;;0.20;0.20;;;;;;;19.88;100.00;102295.88;10390830;28;20046;-83
2023/09/24 18:17:00;;;;;;;0.00;0.00;;;;;;;20.22;100.00;102291.78;10414331;28;20497;-83
2023/09/24 18:22:02;;;;;;;0.00;0.00;;;;;;;20.07;100.00;102305.63;10391531;28;20069;-83
2023/09/24 18:27:04;;;;;;;0.00;0.00;;;;;;;20.10;100.00;102291.69;10392454;28;20052;-82
2023/09/24 18:32:06;;;;;;;0.00;0.00;;;;;;;20.02;100.00;102298.59;10398857;28;20141;-83
2023/09/24 18:37:07;;;;;;;0.10;0.00;;;;;;;20.22;100.00;102302.25;10403317;28;20078;-83
2023/09/24 18:42:09;;;;;;;0.00;0.00;;;;;;;20.24;100.00;102299.66;10407065;28;20046;-83
2023/09/24 18:47:11;;;;;;;0.10;0.00;;;;;;;20.00;100.00;102305.53;10408690;28;20587;-82
2023/09/24 18:52:12;;;;;;;0.30;0.20;;;;;;;19.86;100.00;102308.91;10415617;28;20050;-83
2023/09/24 18:57:14;;;;;;;0.60;0.38;;;;;;;19.73;100.00;102301.78;10375835;28;20046;-82
2023/09/24 19:02:16;;;;;;;0.03;0.00;;;;;;;19.22;100.00;102291.66;10403634;28;20052;-83
2023/09/24 19:07:18;;;;;;;0.15;0.13;;;;;;;19.25;100.00;102289.06;10397361;28;20042;-83
2023/09/24 19:12:20;;;;;;;0.00;0.00;;;;;;;19.48;100.00;102285.81;10413448;28;20133;-82
2023/09/24 19:17:21;;;;;;;0.20;0.10;;;;;;;19.48;100.00;102288.44;10409905;28;20038;-83
2023/09/24 19:22:24;;;;;;;0.00;0.00;;;;;;;19.11;100.00;102274.94;10384920;28;20049;-83
2023/09/24 19:27:26;;;;;;;0.00;0.00;;;;;;;19.14;100.00;102275.00;10387041;28;20038;-83
2023/09/24 19:32:28;;;;;;;0.00;0.00;;;;;;;19.21;100.00;102271.59;10401339;28;20073;-83
2023/09/24 19:37:30;;;;;;;0.00;0.00;;;;;;;19.40;100.00;102266.59;10396873;28;20056;-82
2023/09/24 19:42:33;;;;;;;0.17;0.00;;;;;;;19.22;100.00;102268.13;10413105;28;20042;-82
2023/09/24 19:47:35;;;;;;;0.00;0.00;;;;;;;18.99;100.00;102257.38;10419874;28;20046;-83
2023/09/24 19:52:37;;;;;;;0.00;0.00;;;;;;;18.87;100.00;102252.88;10404483;28;20129;-83
2023/09/24 19:57:41;;;;;;;0.88;0.25;;;;;;;18.96;100.00;102255.63;10368726;28;20052;-83
2023/09/24 20:02:42;;;;;;;1.33;0.50;;;;;;;19.23;100.00;102253.31;10384306;28;20137;-84
2023/09/24 20:07:44;;;;;;;0.00;0.00;;;;;;;19.16;100.00;102257.63;10389730;28;20080;-83
2023/09/24 20:12:46;;;;;;;0.35;0.30;;;;;;;19.20;100.00;102254.16;10414206;28;20052;-83
2023/09/24 20:17:47;;;;;;;0.10;0.10;;;;;;;19.24;100.00;102248.13;10393470;28;20084;-83
2023/09/24 20:22:50;;;;;;;0.03;0.03;;;;;;;18.92;100.00;102248.63;10367026;28;20069;-82
2023/09/24 20:27:51;;;;;;;2.20;0.20;;;;;;;19.09;100.00;102250.56;10378605;28;20132;-83
2023/09/24 20:32:53;;;;;;;10.18;1.45;;;;;;;19.05;100.00;102249.66;10410699;28;20058;-82
2023/09/24 20:37:55;;;;;;;0.10;0.10;;;;;;;19.26;100.00;102254.22;10397955;28;20104;-82
2023/09/24 20:42:56;;;;;;;0.10;0.10;;;;;;;19.05;100.00;102244.44;10401952;28;20045;-82
2023/09/24 20:48:00;;;;;;;0.17;0.10;;;;;;;19.07;100.00;102232.25;10397537;28;20493;-82
2023/09/24 20:53:02;;;;;;;0.30;0.30;;;;;;;19.20;100.00;102233.28;10397791;28;20053;-82
2023/09/24 20:58:04;;;;;;;0.10;0.10;;;;;;;19.04;100.00;102224.41;10401475;28;20092;-84
2023/09/24 21:03:05;;;;;;;1.45;0.20;;;;;;;18.99;100.00;102224.34;10386402;28;20048;-83
2023/09/24 21:08:07;;;;;;;0.32;0.20;;;;;;;19.05;100.00;102225.25;10411441;28;20037;-83
2023/09/24 21:13:09;;;;;;;0.10;0.10;;;;;;;19.17;100.00;102222.81;10367508;28;20117;-83
2023/09/24 21:18:10;;;;;;;0.03;0.03;;;;;;;19.01;100.00;102220.00;10390073;28;20073;-82
2023/09/24 21:23:12;;;;;;;0.00;0.00;;;;;;;18.95;100.00;102213.81;10396534;28;20054;-82
2023/09/24 21:28:14;;;;;;;0.00;0.00;;;;;;;18.82;100.00;102207.53;10403777;28;20053;-83
2023/09/24 21:33:15;;;;;;;0.40;0.30;;;;;;;18.85;100.00;102200.63;10394590;28;20514;-83
2023/09/24 21:38:17;;;;;;;0.00;0.00;;;;;;;18.85;100.00;102199.75;10379318;28;20205;-84
2023/09/24 21:43:19;;;;;;;0.00;0.00;;;;;;;18.67;100.00;102200.41;10401529;28;20618;-83
2023/09/24 21:48:20;;;;;;;0.00;0.00;;;;;;;18.79;100.00;102199.69;10400253;28;20073;-82
2023/09/24 21:53:22;;;;;;;0.00;0.00;;;;;;;18.77;100.00;102185.72;10403260;28;20136;-83
2023/09/24 21:58:24;;;;;;;0.00;0.00;;;;;;;18.79;100.00;102189.25;10395267;28;20052;-82
2023/09/24 22:03:25;;;;;;;0.00;0.00;;;;;;;18.74;100.00;102181.34;10405336;28;20069;-84
2023/09/24 22:08:27;;;;;;;0.28;0.10;;;;;;;18.74;100.00;102180.47;10404610;28;20069;-82
2023/09/24 22:13:29;;;;;;;0.00;0.00;;;;;;;18.60;100.00;102175.94;10401627;28;20067;-82
2023/09/24 22:18:31;;;;;;;0.00;0.00;;;;;;;18.35;100.00;102167.81;10409813;28;20133;-83
2023/09/24 22:23:32;;;;;;;0.20;0.20;;;;;;;18.54;100.00;102166.28;10401056;28;20046;-82
2023/09/24 22:28:34;;;;;;;0.00;0.00;;;;;;;18.34;100.00;102165.16;10402891;28;20520;-82
2023/09/24 22:33:36;;;;;;;0.22;0.22;;;;;;;18.62;100.00;102169.03;10392527;28;20136;-83
2023/09/24 22:38:37;;;;;;;0.25;0.13;;;;;;;18.41;100.00;102160.91;10405601;28;20097;-82
2023/09/24 22:43:39;;;;;;;0.00;0.00;;;;;;;18.44;100.00;102173.97;10398771;28;20097;-82
2023/09/24 22:48:41;;;;;;;0.08;0.08;;;;;;;18.15;100.00;102164.91;10419164;28;20556;-82
2023/09/24 22:53:43;;;;;;;0.00;0.00;;;;;;;18.16;100.00;102165.78;10412517;28;20057;-82
2023/09/24 22:58:45;;;;;;;0.00;0.00;;;;;;;17.95;100.00;102167.22;10419141;28;20069;-81